Time;durP1;ratioP1;P1;durP2;ratioP2;P2;SDS_P1;SDS_P2;PMS_P1;PMS_P2;Temp;Humidity;BMP_temperature;BMP_pressure;BME280_temperature;BME280_humidity;BME280_pressure;Samples;Min_cycle;Max_cycle;Signal;HPM_P1;HPM_P2
2023/07/23 00:01:02;;;;;;;;;;;;;;;15.27;100.00;100860.25;10481092;28;19924;-61
2023/07/23 00:06:05;;;;;;;;;;;;;;;15.04;100.00;100852.28;10498627;28;19924;-61
2023/07/23 00:11:07;;;;;;;;;;;;;;;15.18;100.00;100837.22;10498313;28;20394;-61
2023/07/23 00:16:09;;;;;;;;;;;;;;;15.42;100.00;100827.44;10498107;28;20356;-61
2023/07/23 00:21:11;;;;;;;;;;;;;;;15.37;100.00;100834.03;10498444;28;19931;-61
2023/07/23 00:26:14;;;;;;;;;;;;;;;15.59;100.00;100822.66;10498025;28;19931;-61
2023/07/23 00:31:16;;;;;;;;;;;;;;;15.66;100.00;100808.00;10497932;28;20376;-61
2023/07/23 00:36:18;;;;;;;;;;;;;;;15.26;100.00;100805.81;10497825;28;20264;-62
2023/07/23 00:41:20;;;;;;;;;;;;;;;15.24;100.00;100807.75;10503718;22;20405;-66
2023/07/23 00:46:22;;;;;;;;;;;;;;;15.35;100.00;100789.28;10479896;28;19931;-65
2023/07/23 00:51:25;;;;;;;;;;;;;;;15.32;100.00;100778.97;10497656;28;20290;-66
2023/07/23 00:56:27;;;;;;;;;;;;;;;15.42;100.00;100769.38;10497466;28;19931;-65
2023/07/23 01:01:30;;;;;;;;;;;;;;;15.52;100.00;100764.22;10497360;28;19924;-66
2023/07/23 01:06:33;;;;;;;;;;;;;;;15.60;100.00;100755.69;10498412;28;20462;-65
2023/07/23 01:11:35;;;;;;;;;;;;;;;15.45;100.00;100743.72;10470750;28;19932;-65
2023/07/23 01:16:38;;;;;;;;;;;;;;;15.21;100.00;100737.63;10486992;28;19924;-65
2023/07/23 01:21:40;;;;;;;;;;;;;;;15.36;100.00;100721.53;10504573;28;20386;-65
2023/07/23 01:26:42;;;;;;;;;;;;;;;15.28;100.00;100716.88;10504332;28;20413;-65
2023/07/23 01:31:44;;;;;;;;;;;;;;;15.50;100.00;100712.53;10504349;28;19930;-66
2023/07/23 01:36:47;;;;;;;;;;;;;;;15.27;100.00;100709.09;10504163;28;19930;-65
2023/07/23 01:41:49;;;;;;;;;;;;;;;15.53;100.00;100694.69;10503682;28;19924;-66
2023/07/23 01:46:51;;;;;;;;;;;;;;;15.70;100.00;100692.47;10503612;28;20481;-66
2023/07/23 01:51:53;;;;;;;;;;;;;;;15.56;100.00;100678.56;10503742;28;19977;-65
2023/07/23 01:56:56;;;;;;;;;;;;;;;15.58;100.00;100675.81;10503315;28;19931;-66
2023/07/23 02:01:58;;;;;;;;;;;;;;;15.58;100.00;100665.25;10485769;28;19971;-66
2023/07/23 02:07:01;;;;;;;;;;;;;;;15.92;100.00;100651.97;10502937;28;20432;-66
2023/07/23 02:12:04;;;;;;;;;;;;;;;15.74;100.00;100651.69;10502718;28;19928;-65
2023/07/23 02:17:07;;;;;;;;;;;;;;;15.67;100.00;100635.50;10502288;28;19931;-66
2023/07/23 02:22:09;;;;;;;;;;;;;;;15.71;100.00;100625.53;10502286;28;20363;-66
2023/07/23 02:27:11;;;;;;;;;;;;;;;15.71;100.00;100618.44;10502104;28;19924;-65
2023/07/23 02:32:13;;;;;;;;;;;;;;;15.78;100.00;100614.38;10501793;28;20367;-66
2023/07/23 02:37:16;;;;;;;;;;;;;;;15.70;100.00;100606.22;10484288;28;19925;-66
2023/07/23 02:42:18;;;;;;;;;;;;;;;15.83;100.00;100594.69;10501337;28;19924;-65
2023/07/23 02:47:20;;;;;;;;;;;;;;;15.66;100.00;100599.50;10501274;28;19930;-65
2023/07/23 02:52:23;;;;;;;;;;;;;;;15.75;100.00;100593.53;10501279;28;19965;-65
2023/07/23 02:57:25;;;;;;;;;;;;;;;15.89;100.00;100583.63;10483166;28;19924;-65
2023/07/23 03:02:28;;;;;;;;;;;;;;;15.78;100.00;100573.94;10500952;28;19928;-65
2023/07/23 03:07:32;;;;;;;;;;;;;;;15.74;100.00;100573.31;10500624;28;19925;-66
2023/07/23 03:12:34;;;;;;;;;;;;;;;15.82;100.00;100574.50;10482476;28;19928;-66
2023/07/23 03:17:36;;;;;;;;;;;;;;;15.75;100.00;100567.13;10482155;28;20287;-65
2023/07/23 03:22:39;;;;;;;;;;;;;;;15.85;100.00;100563.69;10499737;28;19978;-66
2023/07/23 03:27:41;;;;;;;;;;;;;;;15.76;100.00;100565.31;10482148;28;20053;-66
2023/07/23 03:32:43;;;;;;;;;;;;;;;15.81;100.00;100557.03;10498878;28;19928;-65
2023/07/23 03:37:45;;;;;;;;;;;;;;;16.09;100.00;100558.19;10499179;28;19951;-66
2023/07/23 03:42:48;;;;;;;;;;;;;;;15.73;100.00;100554.97;10481336;28;19924;-66
2023/07/23 03:47:50;;;;;;;;;;;;;;;15.83;100.00;100552.44;10499033;28;19925;-66
2023/07/23 03:52:52;;;;;;;;;;;;;;;15.82;100.00;100541.06;10498793;28;20402;-66
2023/07/23 03:57:54;;;;;;;;;;;;;;;15.86;100.00;100533.72;10498635;28;19931;-65
2023/07/23 04:02:57;;;;;;;;;;;;;;;15.91;100.00;100535.00;10498594;28;20393;-65
2023/07/23 04:07:59;;;;;;;;;;;;;;;15.85;100.00;100545.22;10498458;28;19924;-66
2023/07/23 04:13:03;;;;;;;;;;;;;;;15.78;100.00;100529.91;10498411;28;20007;-65
2023/07/23 04:18:11;;;;;;;;;;;;;;;15.91;100.00;100531.53;10464347;28;19929;-66
2023/07/23 04:23:13;;;;;;;;;;;;;;;15.96;100.00;100524.88;10498256;28;19924;-65
2023/07/23 04:28:15;;;;;;;;;;;;;;;15.98;100.00;100528.22;10498164;28;19931;-65
2023/07/23 04:33:17;;;;;;;;;;;;;;;15.97;100.00;100525.72;10497977;28;19925;-65
2023/07/23 04:38:20;;;;;;;;;;;;;;;16.14;100.00;100519.03;10498240;28;19930;-65
2023/07/23 04:43:22;;;;;;;;;;;;;;;16.13;100.00;100528.72;10469311;28;19924;-66
2023/07/23 04:48:24;;;;;;;;;;;;;;;16.26;100.00;100527.69;10488164;28;20350;-66
2023/07/23 04:53:26;;;;;;;;;;;;;;;16.32;100.00;100522.72;10506016;28;19924;-66
2023/07/23 04:58:29;;;;;;;;;;;;;;;16.27;100.00;100529.34;10505716;28;19931;-65
2023/07/23 05:03:31;;;;;;;;;;;;;;;16.52;100.00;100530.72;10487888;28;19931;-66
2023/07/23 05:08:33;;;;;;;;;;;;;;;16.68;98.54;100525.78;10505337;28;19935;-66
2023/07/23 05:13:36;;;;;;;;;;;;;;;16.58;100.00;100524.09;10504966;28;19931;-66
2023/07/23 05:18:38;;;;;;;;;;;;;;;16.67;100.00;100521.44;10504759;28;19924;-65
2023/07/23 05:23:43;;;;;;;;;;;;;;;16.83;100.00;100520.94;10504675;28;20271;-65
2023/07/23 05:28:45;;;;;;;;;;;;;;;16.96;94.56;100517.25;10504578;28;19928;-65
2023/07/23 05:33:47;;;;;;;;;;;;;;;17.09;91.93;100515.19;10504257;28;19931;-65
2023/07/23 05:38:50;;;;;;;;;;;;;;;16.94;94.18;100512.09;10504122;28;19924;-65
2023/07/23 05:43:52;;;;;;;;;;;;;;;16.93;99.15;100522.78;10503640;28;20299;-65
2023/07/23 05:48:54;;;;;;;;;;;;;;;17.04;94.37;100522.69;10503736;28;20011;-66
2023/07/23 05:53:56;;;;;;;;;;;;;;;16.89;99.62;100519.59;10502905;28;19925;-66
2023/07/23 05:58:59;;;;;;;;;;;;;;;17.03;99.56;100516.56;10485507;28;19931;-65
2023/07/23 06:04:01;;;;;;;;;;;;;;;17.07;95.16;100515.31;10485562;28;19930;-66
2023/07/23 06:09:06;;;;;;;;;;;;;;;16.85;93.72;100520.84;10502800;28;20422;-66
2023/07/23 06:14:08;;;;;;;;;;;;;;;17.09;91.25;100517.81;10502669;28;20376;-65
2023/07/23 06:19:11;;;;;;;;;;;;;;;16.85;91.20;100512.91;10502631;28;19970;-66
2023/07/23 06:24:13;;;;;;;;;;;;;;;16.79;97.14;100511.59;10502357;28;19925;-66
2023/07/23 06:29:15;;;;;;;;;;;;;;;17.01;92.48;100517.66;10502336;28;19925;-66
2023/07/23 06:34:17;;;;;;;;;;;;;;;16.74;100.00;100521.75;10484239;28;20393;-66
2023/07/23 06:39:20;;;;;;;;;;;;;;;16.86;100.00;100533.94;10501857;28;19930;-66
2023/07/23 06:44:23;;;;;;;;;;;;;;;16.52;100.00;100538.63;10501387;28;20003;-66
2023/07/23 06:49:28;;;;;;;;;;;;;;;16.44;100.00;100541.97;10501318;28;19931;-66
2023/07/23 06:54:32;;;;;;;;;;;;;;;16.26;100.00;100541.72;10501221;28;19977;-68
2023/07/23 06:59:35;;;;;;;;;;;;;;;16.49;100.00;100550.34;10500704;28;19929;-69
2023/07/23 07:04:37;;;;;;;;;;;;;;;16.51;100.00;100548.38;10499653;28;19924;-69
2023/07/23 07:09:39;;;;;;;;;;;;;;;16.19;100.00;100553.78;10500378;28;19967;-68
2023/07/23 07:14:41;;;;;;;;;;;;;;;16.21;100.00;100561.59;10500335;28;19924;-69
2023/07/23 07:19:44;;;;;;;;;;;;;;;16.46;100.00;100562.97;10500019;28;19931;-69
2023/07/23 07:24:47;;;;;;;;;;;;;;;16.56;100.00;100563.00;10499827;28;19924;-68
2023/07/23 07:29:49;;;;;;;;;;;;;;;16.63;100.00;100564.16;10481879;28;20272;-69
2023/07/23 07:34:51;;;;;;;;;;;;;;;16.68;100.00;100559.31;10499385;28;19931;-69
2023/07/23 07:39:54;;;;;;;;;;;;;;;16.61;100.00;100561.66;10499218;28;20284;-69
2023/07/23 07:44:56;;;;;;;;;;;;;;;16.83;100.00;100567.72;10499061;28;19933;-68
2023/07/23 07:49:58;;;;;;;;;;;;;;;16.22;100.00;100571.16;10499010;28;19933;-68
2023/07/23 07:55:01;;;;;;;;;;;;;;;16.28;100.00;100562.72;10498906;28;19925;-69
2023/07/23 08:00:03;;;;;;;;;;;;;;;16.39;100.00;100570.59;10498731;28;19931;-69
2023/07/23 08:05:06;;;;;;;;;;;;;;;16.66;100.00;100563.88;10498873;28;19924;-69
2023/07/23 08:10:09;;;;;;;;;;;;;;;16.56;100.00;100560.34;10498886;28;19924;-69
2023/07/23 08:15:11;;;;;;;;;;;;;;;16.80;100.00;100567.97;10497992;28;20012;-69
2023/07/23 08:20:14;;;;;;;;;;;;;;;16.91;100.00;100557.31;10498354;28;20007;-69
2023/07/23 08:25:16;;;;;;;;;;;;;;;16.92;100.00;100571.38;10498198;28;19925;-69
2023/07/23 08:30:19;;;;;;;;;;;;;;;17.19;100.00;100562.81;10498271;28;19924;-68
2023/07/23 08:35:21;;;;;;;;;;;;;;;17.44;100.00;100556.97;10497930;28;19925;-68
2023/07/23 08:40:24;;;;;;;;;;;;;;;17.62;100.00;100543.91;10498229;28;19925;-68
2023/07/23 08:45:26;;;;;;;;;;;;;;;17.86;100.00;100553.22;10497635;28;19970;-68
2023/07/23 08:50:29;;;;;;;;;;;;;;;17.45;100.00;100552.53;10497595;28;19924;-68
2023/07/23 08:55:31;;;;;;;;;;;;;;;17.53;100.00;100552.66;10497722;28;19924;-68
2023/07/23 09:00:33;;;;;;;;;;;;;;;17.67;100.00;100553.22;10497353;28;19929;-68
2023/07/23 09:05:35;;;;;;;;;;;;;;;17.60;100.00;100552.94;10497527;28;19925;-68
2023/07/23 09:10:38;;;;;;;;;;;;;;;17.69;100.00;100556.59;10479455;28;20385;-67
2023/07/23 09:15:40;;;;;;;;;;;;;;;17.38;100.00;100554.91;10497010;28;19925;-66
2023/07/23 09:20:47;;;;;;;;;;;;;;;17.20;100.00;100557.38;10496990;28;19931;-67
2023/07/23 09:25:49;;;;;;;;;;;;;;;17.62;100.00;100553.66;10496924;28;20322;-70
2023/07/23 09:30:55;;;;;;;;;;;;;;;17.53;100.00;100552.66;10503082;28;20003;-70
2023/07/23 09:35:58;;;;;;;;;;;;;;;17.76;100.00;100550.56;10469987;28;19924;-65
2023/07/23 09:41:00;;;;;;;;;;;;;;;17.68;100.00;100558.38;10503784;28;19965;-64
2023/07/23 09:46:02;;;;;;;;;;;;;;;17.70;100.00;100559.09;10503818;28;19963;-65
2023/07/23 09:51:10;;;;;;;;;;;;;;;17.71;100.00;100560.75;10485896;28;20022;-65
2023/07/23 09:56:13;;;;;;;;;;;;;;;17.63;100.00;100574.69;10486417;28;20260;-65
2023/07/23 10:01:16;;;;;;;;;;;;;;;17.35;100.00;100578.13;10503292;28;20011;-65
2023/07/23 10:06:21;;;;;;;;;;;;;;;17.61;100.00;100576.63;10503091;28;19924;-65
2023/07/23 10:11:23;;;;;;;;;;;;;;;17.71;100.00;100574.00;10502831;28;19931;-65
2023/07/23 10:16:29;;;;;;;;;;;;;;;17.69;100.00;100569.81;10502555;28;20394;-65
2023/07/23 10:21:32;;;;;;;;;;;;;;;17.87;100.00;100569.97;10484840;28;19924;-66
2023/07/23 10:26:41;;;;;;;;;;;;;;;17.87;100.00;100572.59;10502467;28;19928;-66
2023/07/23 10:31:44;;;;;;;;;;;;;;;17.81;100.00;100579.28;10502168;28;19924;-66
2023/07/23 10:37:06;;;;;;;;;;;;;;;17.83;100.00;100590.56;10484025;28;19924;-67
2023/07/23 10:42:08;;;;;;;;;;;;;;;17.42;100.00;100589.88;10501125;28;19924;-68
2023/07/23 10:47:32;;;;;;;;;;;;;;;17.35;100.00;100592.22;10501358;28;20291;-68
2023/07/23 10:52:34;;;;;;;;;;;;;;;17.21;100.00;100596.06;10501265;28;19928;-68
2023/07/23 10:57:41;;;;;;;;;;;;;;;17.18;100.00;100604.31;10500859;28;19931;-68
2023/07/23 11:02:47;;;;;;;;;;;;;;;17.13;100.00;100595.09;10483284;28;20015;-67
2023/07/23 11:08:08;;;;;;;;;;;;;;;17.31;100.00;100589.97;10500605;28;19925;-67
2023/07/23 11:13:11;;;;;;;;;;;;;;;17.68;100.00;100592.78;10500276;28;20372;-67
2023/07/23 11:18:13;;;;;;;;;;;;;;;17.48;100.00;100601.69;10482208;28;19931;-67
2023/07/23 11:23:16;;;;;;;;;;;;;;;17.35;100.00;100594.00;10500141;28;19974;-67
2023/07/23 11:28:20;;;;;;;;;;;;;;;17.50;100.00;100595.31;10482139;28;19924;-67
2023/07/23 11:33:22;;;;;;;;;;;;;;;17.72;100.00;100593.34;10499515;28;19978;-67
2023/07/23 11:38:30;;;;;;;;;;;;;;;17.85;100.00;100593.91;10481667;28;20438;-70
2023/07/23 11:43:33;;;;;;;;;;;;;;;17.95;100.00;100581.50;10499005;28;20265;-70
2023/07/23 11:48:35;;;;;;;;;;;;;;;18.28;100.00;100586.50;10481656;28;19928;-71
2023/07/23 11:53:38;;;;;;;;;;;;;;;18.67;100.00;100591.66;10480695;28;19924;-73
2023/07/23 11:58:41;;;;;;;;;;;;;;;19.18;100.00;100582.38;10498965;28;19931;-70
2023/07/23 12:03:43;;;;;;;;;;;;;;;19.21;100.00;100578.56;10481010;28;19928;-70
2023/07/23 12:08:46;;;;;;;;;;;;;;;19.23;100.00;100569.50;10480998;28;19928;-70
2023/07/23 12:13:52;;;;;;;;;;;;;;;19.54;100.00;100563.81;10498590;28;19956;-69
2023/07/23 12:18:58;;;;;;;;;;;;;;;19.28;100.00;100555.75;10480571;28;19999;-69
2023/07/23 12:24:12;;;;;;;;;;;;;;;20.17;100.00;100552.22;10498221;28;20375;-69
2023/07/23 12:29:15;;;;;;;;;;;;;;;19.86;100.00;100554.47;10480469;28;19929;-69
2023/07/23 12:34:19;;;;;;;;;;;;;;;19.91;100.00;100546.06;10480301;28;19925;-69
2023/07/23 12:39:21;;;;;;;;;;;;;;;20.16;100.00;100547.88;10497813;28;20318;-69
2023/07/23 12:44:23;;;;;;;;;;;;;;;20.11;100.00;100552.81;10497526;28;20260;-69
2023/07/23 12:49:26;;;;;;;;;;;;;;;20.30;100.00;100542.97;10497699;28;19925;-70
2023/07/23 12:54:30;;;;;;;;;;;;;;;20.65;100.00;100541.19;10497559;28;19925;-69
2023/07/23 12:59:32;;;;;;;;;;;;;;;21.36;99.82;100539.84;10494745;23;19931;-69
2023/07/23 13:04:34;;;;;;;;;;;;;;;20.33;100.00;100535.50;10502054;28;19924;-69
2023/07/23 13:09:36;;;;;;;;;;;;;;;20.26;100.00;100544.25;10505837;28;19928;-69
2023/07/23 13:14:39;;;;;;;;;;;;;;;20.48;100.00;100537.59;10505639;28;19924;-68
2023/07/23 13:19:41;;;;;;;;;;;;;;;20.93;100.00;100539.94;10505068;28;19924;-69
2023/07/23 13:24:43;;;;;;;;;;;;;;;21.17;94.25;100537.50;10504786;28;19925;-69
2023/07/23 13:29:45;;;;;;;;;;;;;;;21.82;96.05;100529.59;10504776;28;19924;-69
2023/07/23 13:34:48;;;;;;;;;;;;;;;21.20;88.70;100535.34;10505024;28;19932;-68
2023/07/23 13:39:50;;;;;;;;;;;;;;;20.91;97.91;100533.09;10504174;28;19931;-69
2023/07/23 13:44:52;;;;;;;;;;;;;;;20.44;97.97;100552.19;10504115;28;20458;-68
2023/07/23 13:49:54;;;;;;;;;;;;;;;21.01;100.00;100555.09;10503908;28;20371;-69
2023/07/23 13:54:56;;;;;;;;;;;;;;;22.29;100.00;100544.00;10503617;28;19932;-69
2023/07/23 14:00:01;;;;;;;;;;;;;;;23.42;93.81;100524.13;10503245;28;19925;-68
2023/07/23 14:05:03;;;;;;;;;;;;;;;22.38;95.70;100521.66;10503238;28;20282;-68
2023/07/23 14:10:06;;;;;;;;;;;;;;;23.39;98.25;100516.47;10503029;28;19946;-68
2023/07/23 14:15:08;;;;;;;;;;;;;;;25.01;88.02;100497.13;10501157;28;20298;-68
2023/07/23 14:20:11;;;;;;;;;;;;;;;25.21;88.31;100503.53;10501547;28;19924;-68
2023/07/23 14:25:13;;;;;;;;;;;;;;;25.06;77.18;100491.22;10502729;28;19931;-68
2023/07/23 14:30:16;;;;;;;;;;;;;;;25.21;78.14;100494.66;10502354;28;20252;-68
2023/07/23 14:35:19;;;;;;;;;;;;;;;23.98;83.20;100494.41;10502228;28;20382;-68
2023/07/23 14:40:21;;;;;;;;;;;;;;;23.86;78.56;100491.34;10502520;28;19925;-68
2023/07/23 14:45:23;;;;;;;;;;;;;;;23.65;75.00;100489.34;10500615;28;20019;-69
2023/07/23 14:50:25;;;;;;;;;;;;;;;23.79;75.88;100477.03;10501509;28;19963;-68
2023/07/23 14:55:28;;;;;;;;;;;;;;;23.92;80.20;100461.22;10501187;28;19924;-68
2023/07/23 15:00:30;;;;;;;;;;;;;;;24.74;73.35;100474.63;10500981;28;20359;-68
2023/07/23 15:05:32;;;;;;;;;;;;;;;23.64;74.38;100471.66;10501236;28;19924;-69
2023/07/23 15:10:35;;;;;;;;;;;;;;;24.41;72.68;100465.16;10501215;28;19924;-69
2023/07/23 15:15:37;;;;;;;;;;;;;;;23.55;77.99;100478.06;10500719;28;19935;-69
2023/07/23 15:20:39;;;;;;;;;;;;;;;23.69;79.42;100468.44;10500826;28;19947;-69
2023/07/23 15:25:42;;;;;;;;;;;;;;;23.73;80.02;100481.25;10499228;28;20268;-69
2023/07/23 15:30:44;;;;;;;;;;;;;;;23.71;77.41;100482.44;10499951;28;19924;-70
2023/07/23 15:35:46;;;;;;;;;;;;;;;23.46;77.12;100468.47;10499875;28;19932;-70
2023/07/23 15:40:50;;;;;;;;;;;;;;;23.63;77.42;100463.81;10498881;28;21393;-70
2023/07/23 15:45:52;;;;;;;;;;;;;;;23.52;76.43;100443.72;10499683;28;19924;-71
2023/07/23 15:50:55;;;;;;;;;;;;;;;23.32;75.32;100451.41;10499686;28;19925;-71
2023/07/23 15:55:57;;;;;;;;;;;;;;;23.86;76.65;100437.88;10498900;28;20003;-70
2023/07/23 16:00:59;;;;;;;;;;;;;;;24.27;73.83;100448.09;10499066;28;19925;-70
2023/07/23 16:06:02;;;;;;;;;;;;;;;24.38;72.22;100443.31;10498795;28;19975;-69
2023/07/23 16:11:04;;;;;;;;;;;;;;;24.23;73.52;100446.81;10498715;28;20387;-70
2023/07/23 16:16:06;;;;;;;;;;;;;;;22.72;80.58;100455.63;10498703;28;19928;-70
2023/07/23 16:21:09;;;;;;;;;;;;;;;22.62;81.11;100442.53;10498727;28;19964;-70
2023/07/23 16:26:11;;;;;;;;;;;;;;;22.67;86.23;100450.81;10481153;28;19931;-70
2023/07/23 16:31:13;;;;;;;;;;;;;;;22.15;86.53;100454.03;10498309;28;20367;-69
2023/07/23 16:36:16;;;;;;;;;;;;;;;21.34;97.34;100477.97;10498856;28;20379;-68
2023/07/23 16:41:18;;;;;;;;;;;;;;;21.24;100.00;100480.78;10506550;28;20011;-68
2023/07/23 16:46:21;;;;;;;;;;;;;;;20.67;100.00;100478.00;10505225;28;20312;-69
2023/07/23 16:51:23;;;;;;;;;;;;;;;20.93;100.00;100469.91;10506345;28;19931;-69
2023/07/23 16:56:26;;;;;;;;;;;;;;;20.86;100.00;100467.06;10505553;28;19925;-68
2023/07/23 17:01:29;;;;;;;;;;;;;;;21.06;100.00;100461.47;10488197;28;19959;-69
2023/07/23 17:06:32;;;;;;;;;;;;;;;20.74;100.00;100457.75;10505522;28;19931;-69
2023/07/23 17:11:34;;;;;;;;;;;;;;;21.33;100.00;100445.19;10505628;28;19932;-69
2023/07/23 17:16:38;;;;;;;;;;;;;;;21.55;100.00;100442.03;10505052;28;19928;-69
2023/07/23 17:21:41;;;;;;;;;;;;;;;21.32;100.00;100443.50;10505078;28;19925;-68
2023/07/23 17:26:43;;;;;;;;;;;;;;;21.32;100.00;100432.84;10504884;28;19931;-68
2023/07/23 17:31:46;;;;;;;;;;;;;;;20.98;100.00;100427.69;10504578;28;20413;-68
2023/07/23 17:36:51;;;;;;;;;;;;;;;20.89;100.00;100429.50;10503254;28;19924;-69
2023/07/23 17:41:53;;;;;;;;;;;;;;;21.18;100.00;100435.34;10504288;28;19924;-69
2023/07/23 17:46:56;;;;;;;;;;;;;;;21.26;100.00;100432.69;10503970;28;20261;-68
2023/07/23 17:51:58;;;;;;;;;;;;;;;20.82;100.00;100428.50;10502733;28;19986;-68
2023/07/23 17:57:01;;;;;;;;;;;;;;;20.72;100.00;100427.81;10502422;28;19924;-69
2023/07/23 18:02:03;;;;;;;;;;;;;;;20.89;100.00;100423.34;10503337;28;20426;-68
2023/07/23 18:07:06;;;;;;;;;;;;;;;20.49;100.00;100423.06;10503188;28;19931;-69
2023/07/23 18:12:08;;;;;;;;;;;;;;;20.72;100.00;100427.81;10503053;28;20367;-68
2023/07/23 18:17:10;;;;;;;;;;;;;;;20.67;100.00;100415.00;10502818;28;19968;-69
2023/07/23 18:22:14;;;;;;;;;;;;;;;20.44;100.00;100414.75;10502884;28;19924;-69
2023/07/23 18:27:16;;;;;;;;;;;;;;;20.18;100.00;100431.59;10502440;28;20482;-69
2023/07/23 18:32:19;;;;;;;;;;;;;;;20.25;100.00;100425.66;10502270;28;19925;-69
2023/07/23 18:37:22;;;;;;;;;;;;;;;20.05;100.00;100425.88;10500865;28;19924;-69
2023/07/23 18:42:24;;;;;;;;;;;;;;;20.26;100.00;100428.16;10500739;28;19930;-68
2023/07/23 18:47:27;;;;;;;;;;;;;;;20.23;100.00;100426.63;10501861;28;19963;-68
2023/07/23 18:52:29;;;;;;;;;;;;;;;20.08;100.00;100432.72;10501451;28;19951;-68
2023/07/23 18:57:31;;;;;;;;;;;;;;;19.90;100.00;100432.78;10501204;28;19930;-68
2023/07/23 19:02:33;;;;;;;;;;;;;;;19.97;100.00;100436.47;10501158;28;19931;-68
2023/07/23 19:07:36;;;;;;;;;;;;;;;19.97;100.00;100417.88;10500705;28;19978;-68
2023/07/23 19:12:38;;;;;;;;;;;;;;;20.06;100.00;100437.38;10500740;28;19925;-67
2023/07/23 19:17:40;;;;;;;;;;;;;;;19.68;100.00;100433.13;10500432;28;19932;-68
2023/07/23 19:22:42;;;;;;;;;;;;;;;19.59;100.00;100436.72;10500119;28;20383;-68
2023/07/23 19:27:45;;;;;;;;;;;;;;;19.80;100.00;100431.09;10500059;28;19930;-68
2023/07/23 19:32:48;;;;;;;;;;;;;;;19.48;100.00;100437.81;10499705;28;19925;-66
2023/07/23 19:37:50;;;;;;;;;;;;;;;19.35;100.00;100420.59;10499479;28;19947;-68
2023/07/23 19:42:52;;;;;;;;;;;;;;;19.46;100.00;100429.16;10499460;28;19931;-68
2023/07/23 19:47:55;;;;;;;;;;;;;;;19.27;100.00;100426.72;10499394;28;19925;-69
2023/07/23 19:52:57;;;;;;;;;;;;;;;19.47;100.00;100417.56;10498977;28;20015;-69
2023/07/23 19:57:59;;;;;;;;;;;;;;;19.16;100.00;100419.81;10498960;28;19924;-69
2023/07/23 20:03:02;;;;;;;;;;;;;;;19.26;100.00;100425.03;10497637;28;20371;-69
2023/07/23 20:08:04;;;;;;;;;;;;;;;19.38;100.00;100422.97;10497524;28;19931;-69
2023/07/23 20:13:06;;;;;;;;;;;;;;;19.14;100.00;100421.78;10498515;28;19924;-67
2023/07/23 20:18:09;;;;;;;;;;;;;;;19.25;100.00;100434.00;10498424;28;19928;-69
2023/07/23 20:23:11;;;;;;;;;;;;;;;19.06;100.00;100449.09;10498390;28;19925;-69
2023/07/23 20:28:13;;;;;;;;;;;;;;;19.18;100.00;100433.78;10497106;28;20382;-69
2023/07/23 20:33:15;;;;;;;;;;;;;;;19.07;100.00;100444.59;10498321;28;19925;-70
2023/07/23 20:38:18;;;;;;;;;;;;;;;19.02;100.00;100446.88;10497772;28;20348;-70
2023/07/23 20:43:20;;;;;;;;;;;;;;;19.08;100.00;100452.41;10497037;28;19924;-70
2023/07/23 20:48:22;;;;;;;;;;;;;;;19.07;100.00;100450.75;10497827;28;19925;-67
2023/07/23 20:53:25;;;;;;;;;;;;;;;19.04;100.00;100444.91;10497822;28;19930;-68
2023/07/23 20:58:27;;;;;;;;;;;;;;;18.86;100.00;100445.75;10497670;28;19928;-69
2023/07/23 21:03:29;;;;;;;;;;;;;;;18.74;100.00;100460.16;10497572;28;20286;-69
2023/07/23 21:08:32;;;;;;;;;;;;;;;18.76;100.00;100452.88;10497491;28;19930;-68
2023/07/23 21:13:34;;;;;;;;;;;;;;;18.66;100.00;100457.41;10497496;28;20272;-68
2023/07/23 21:18:36;;;;;;;;;;;;;;;18.76;100.00;100463.47;10497190;28;19951;-69
2023/07/23 21:23:38;;;;;;;;;;;;;;;18.98;100.00;100459.63;10498653;28;19925;-69
2023/07/23 21:28:41;;;;;;;;;;;;;;;18.88;100.00;100451.72;10504943;28;19925;-68
2023/07/23 21:33:43;;;;;;;;;;;;;;;19.03;100.00;100441.44;10504668;28;19924;-69
2023/07/23 21:38:45;;;;;;;;;;;;;;;18.91;100.00;100427.56;10503275;28;19931;-69
2023/07/23 21:43:47;;;;;;;;;;;;;;;19.08;100.00;100438.31;10504192;28;20409;-69
2023/07/23 21:48:49;;;;;;;;;;;;;;;19.01;100.00;100435.41;10504192;28;19924;-69
2023/07/23 21:53:52;;;;;;;;;;;;;;;19.16;100.00;100438.38;10503795;28;19931;-68
2023/07/23 21:58:54;;;;;;;;;;;;;;;19.14;100.00;100447.50;10503300;28;19931;-68
2023/07/23 22:03:56;;;;;;;;;;;;;;;18.93;100.00;100454.75;10503657;28;19924;-68
2023/07/23 22:08:58;;;;;;;;;;;;;;;19.05;100.00;100449.25;10503387;28;20357;-69
2023/07/23 22:14:01;;;;;;;;;;;;;;;18.85;100.00;100446.72;10503012;28;19931;-68
2023/07/23 22:19:03;;;;;;;;;;;;;;;18.98;100.00;100451.66;10501708;28;19924;-70
2023/07/23 22:24:05;;;;;;;;;;;;;;;18.74;100.00;100447.75;10502604;28;20268;-69
2023/07/23 22:29:07;;;;;;;;;;;;;;;18.77;100.00;100448.44;10502482;28;20291;-69
2023/07/23 22:34:10;;;;;;;;;;;;;;;18.86;100.00;100431.63;10501733;28;19924;-69
2023/07/23 22:39:12;;;;;;;;;;;;;;;18.89;100.00;100437.47;10502162;28;19924;-69
2023/07/23 22:44:14;;;;;;;;;;;;;;;19.00;100.00;100435.59;10501730;28;19925;-69
2023/07/23 22:49:16;;;;;;;;;;;;;;;19.00;100.00;100425.00;10501941;28;19925;-69
2023/07/23 22:54:19;;;;;;;;;;;;;;;19.01;100.00;100432.75;10501410;28;19925;-69
2023/07/23 22:59:21;;;;;;;;;;;;;;;18.96;100.00;100424.44;10500888;28;19925;-69
2023/07/23 23:04:36;;;;;;;;;;;;;;;18.72;100.00;100433.78;10499939;28;20402;-69
2023/07/23 23:09:38;;;;;;;;;;;;;;;18.88;100.00;100421.72;10500805;28;19928;-68
2023/07/23 23:14:40;;;;;;;;;;;;;;;18.86;100.00;100429.84;10500546;28;20280;-67
2023/07/23 23:19:42;;;;;;;;;;;;;;;18.75;100.00;100420.22;10500239;28;19925;-68
2023/07/23 23:24:45;;;;;;;;;;;;;;;18.96;100.00;100418.31;10500270;28;19925;-68
2023/07/23 23:29:47;;;;;;;;;;;;;;;18.81;100.00;100413.50;10499867;28;19924;-69
2023/07/23 23:34:49;;;;;;;;;;;;;;;18.82;100.00;100407.19;10499734;28;20378;-68
2023/07/23 23:39:51;;;;;;;;;;;;;;;18.84;100.00;100397.31;10499608;28;19931;-68
2023/07/23 23:44:53;;;;;;;;;;;;;;;18.75;100.00;100404.31;10499348;28;20253;-68
2023/07/23 23:49:56;;;;;;;;;;;;;;;18.63;100.00;100408.19;10498735;28;19924;-68
2023/07/23 23:54:58;;;;;;;;;;;;;;;18.58;100.00;100415.75;10498962;28;19935;-69
